Impacts TAF Board
For situational awareness. Not to be used for flight planning purposes.
IDs:

KSEA - Seattle-Tacoma Intl, WA, US

Issued at 2320 UTC 19 Jan 2019
Updated at 2349 UTC 19 Jan 2019
Potential Impact None Slight Moderate High
Time<<21/00Z 21/01Z 21/02Z 21/03Z 21/04Z 21/05Z 21/06Z 21/07Z 21/08Z 21/09Z 21/10Z 21/11Z 21/12Z
Type PRVL PRVL PRVL PRVL PRVL PRVL
VIS >6 >6 >6 >6 >6 >6
CIG 50 50 50 50 50 50
Cover BKN BKN BKN BKN BKN BKN
FltCat VFR VFR VFR VFR VFR VFR
WX -- -- -- -- -- --
WDir 330 330 330 330 330 330
WSpd 5 5 5 5 5 5
WGst -- -- -- -- -- --
Raw TAF
KSEA 192320Z 2000/2106 21008KT P6SM SCT030 BKN040
  FM200400 VRB04KT P6SM SCT040 BKN100
  FM201300 03005KT P6SM SCT025 BKN040
  FM201800 35005KT P6SM BKN025
  FM202200 33005KT P6SM SCT030 BKN050


METAR Board
Radar Display
Forecast Discussion
For situational awareness. Not to be used for flight planning purposes.